createdAt,value
2022-09-15T00:01:42.564Z,47.02
2022-09-15T00:04:11.379Z,47.34
2022-09-15T00:06:40.103Z,47.27
2022-09-15T00:09:09.489Z,47.47
2022-09-15T00:11:39.451Z,47.26
2022-09-15T00:14:09.192Z,47.50
2022-09-15T00:16:38.467Z,47.59
2022-09-15T00:19:07.692Z,47.54
2022-09-15T00:21:40.266Z,47.79
2022-09-15T00:24:10.425Z,47.77
2022-09-15T00:26:39.280Z,47.73
2022-09-15T00:29:07.967Z,47.82
2022-09-15T00:31:36.758Z,48.11
2022-09-15T00:34:07.389Z,48.16
2022-09-15T00:36:36.180Z,48.12
2022-09-15T00:39:05.451Z,48.11
2022-09-15T00:41:34.474Z,48.28
2022-09-15T00:44:16.677Z,48.29
2022-09-15T00:47:09.348Z,48.15
2022-09-15T00:49:41.675Z,48.39
2022-09-15T00:52:16.329Z,48.46
2022-09-15T00:55:28.819Z,48.52
2022-09-15T00:58:04.762Z,48.30
2022-09-15T01:00:34.816Z,48.20
2022-09-15T01:03:04.929Z,48.32
2022-09-15T01:05:38.699Z,48.42
2022-09-15T01:08:16.952Z,48.68
2022-09-15T01:10:47.063Z,48.84
2022-09-15T01:13:16.062Z,48.83
2022-09-15T01:15:58.611Z,48.86
2022-09-15T01:18:33.638Z,48.92
2022-09-15T01:21:24.934Z,48.85
2022-09-15T01:24:20.339Z,48.79
2022-09-15T01:27:30.479Z,49.13
2022-09-15T01:30:35.950Z,49.10
2022-09-15T01:33:28.801Z,49.77
2022-09-15T01:36:05.778Z,49.78
2022-09-15T01:39:01.392Z,50.05
2022-09-15T01:41:50.766Z,50.09
2022-09-15T01:44:25.227Z,50.12
2022-09-15T01:46:58.498Z,50.18
2022-09-15T01:49:31.416Z,50.45
2022-09-15T01:52:00.775Z,50.49
2022-09-15T01:54:34.371Z,50.36
2022-09-15T01:57:03.467Z,50.90
2022-09-15T01:59:32.271Z,50.64
2022-09-15T02:02:12.886Z,50.58
2022-09-15T02:04:53.834Z,50.91
2022-09-15T02:07:51.974Z,50.91
2022-09-15T02:10:31.119Z,51.20
2022-09-15T02:13:27.035Z,51.26
2022-09-15T02:16:00.351Z,51.51
2022-09-15T02:18:42.209Z,51.53
2022-09-15T02:21:19.398Z,51.48
2022-09-15T02:23:55.490Z,51.29
2022-09-15T02:26:28.635Z,51.32
2022-09-15T02:29:00.803Z,51.58
2022-09-15T02:31:32.355Z,51.82
2022-09-15T02:34:07.216Z,51.77
2022-09-15T02:36:36.569Z,51.72
2022-09-15T02:39:10.281Z,51.86
2022-09-15T02:41:39.622Z,51.92
2022-09-15T02:44:10.072Z,51.86
2022-09-15T02:46:40.025Z,52.01
2022-09-15T02:49:08.855Z,51.93
2022-09-15T02:51:37.448Z,52.22
2022-09-15T02:54:06.533Z,52.02
2022-09-15T02:56:35.331Z,52.06
2022-09-15T02:59:04.115Z,52.17
2022-09-15T03:01:35.222Z,52.30
2022-09-15T03:04:05.376Z,52.27
2022-09-15T03:06:37.093Z,52.56
2022-09-15T03:09:08.318Z,52.65
2022-09-15T03:11:37.939Z,52.77
2022-09-15T03:14:08.499Z,52.68
2022-09-15T03:16:37.215Z,52.69
2022-09-15T03:19:06.714Z,52.97
2022-09-15T03:21:36.240Z,53.02
2022-09-15T03:24:05.112Z,52.98
2022-09-15T03:26:33.905Z,53.22
2022-09-15T03:29:02.632Z,53.14
2022-09-15T03:31:31.450Z,53.19
2022-09-15T03:34:00.268Z,53.10
2022-09-15T03:36:29.058Z,53.20
2022-09-15T03:38:59.282Z,53.11
2022-09-15T03:41:28.272Z,53.26
2022-09-15T03:43:57.082Z,53.38
2022-09-15T03:46:25.853Z,53.31
2022-09-15T03:48:54.338Z,53.62
2022-09-15T03:51:23.026Z,53.59
2022-09-15T03:53:51.805Z,53.51
2022-09-15T03:56:25.419Z,53.64
2022-09-15T03:58:54.814Z,53.82
2022-09-15T04:01:24.247Z,53.63
2022-09-15T04:03:53.187Z,53.93
2022-09-15T04:06:23.546Z,54.10
2022-09-15T04:08:53.017Z,54.07
2022-09-15T04:11:23.058Z,54.17
2022-09-15T04:13:53.487Z,54.18
2022-09-15T04:16:24.832Z,54.14
2022-09-15T04:18:55.645Z,54.26
2022-09-15T04:21:27.382Z,54.28
2022-09-15T04:23:56.222Z,54.44
2022-09-15T04:26:28.770Z,54.48
2022-09-15T04:29:03.031Z,54.78
2022-09-15T04:31:34.051Z,54.58
2022-09-15T04:34:03.074Z,54.65
2022-09-15T04:36:32.262Z,54.91
2022-09-15T04:39:01.037Z,54.90
2022-09-15T04:41:29.836Z,54.67
2022-09-15T04:43:58.924Z,54.85
2022-09-15T04:46:27.646Z,54.90
2022-09-15T04:48:57.321Z,55.13
2022-09-15T04:51:27.497Z,54.78
2022-09-15T04:53:56.329Z,54.87
2022-09-15T04:56:26.804Z,54.78
2022-09-15T04:59:03.813Z,54.75
2022-09-15T05:01:35.601Z,54.79
2022-09-15T05:04:05.409Z,54.96
2022-09-15T05:06:35.535Z,54.74
2022-09-15T05:09:10.053Z,55.08
2022-09-15T05:11:39.267Z,55.08
2022-09-15T05:14:09.886Z,55.14
2022-09-15T05:16:40.453Z,55.20
2022-09-15T05:19:11.361Z,55.17
2022-09-15T05:21:40.148Z,55.20
2022-09-15T05:24:09.856Z,54.91
2022-09-15T05:26:38.338Z,54.73
2022-09-15T05:29:07.026Z,54.67
2022-09-15T05:31:35.631Z,54.52
2022-09-15T05:34:06.338Z,54.53
2022-09-15T05:36:34.933Z,54.35
2022-09-15T05:39:04.020Z,54.55
2022-09-15T05:41:33.426Z,54.41
2022-09-15T05:44:02.901Z,54.63
2022-09-15T05:46:31.788Z,54.60
2022-09-15T05:49:00.412Z,54.81
2022-09-15T05:51:30.613Z,54.58
2022-09-15T05:53:59.624Z,54.47
2022-09-15T05:56:28.315Z,54.41
2022-09-15T05:58:57.681Z,54.38
2022-09-15T06:01:30.558Z,54.45
2022-09-15T06:03:59.796Z,54.35
2022-09-15T06:06:31.157Z,54.19
2022-09-15T06:09:02.085Z,53.82
2022-09-15T06:11:34.118Z,53.63
2022-09-15T06:14:04.339Z,53.50
2022-09-15T06:16:35.179Z,53.45
2022-09-15T06:19:04.503Z,53.30
2022-09-15T06:21:33.812Z,53.26
2022-09-15T06:24:06.270Z,53.36
2022-09-15T06:26:35.431Z,53.72
2022-09-15T06:29:05.756Z,53.53
2022-09-15T06:31:36.210Z,53.37
2022-09-15T06:34:05.642Z,53.47
2022-09-15T06:36:36.889Z,53.53
2022-09-15T06:39:05.777Z,53.01
2022-09-15T06:41:58.403Z,53.01
2022-09-15T06:44:23.838Z,53.14
2022-09-15T06:46:52.628Z,53.02
2022-09-15T06:49:22.233Z,52.79
2022-09-15T06:51:50.819Z,52.77
2022-09-15T06:54:19.712Z,52.71
2022-09-15T06:56:48.500Z,52.69
2022-09-15T06:59:17.696Z,52.47
2022-09-15T07:01:55.988Z,52.59
2022-09-15T07:04:24.804Z,52.72
2022-09-15T07:06:53.589Z,52.44
2022-09-15T07:09:22.480Z,52.54
2022-09-15T07:11:51.165Z,52.46
2022-09-15T07:14:19.869Z,52.48
2022-09-15T07:16:48.515Z,52.18
2022-09-15T07:19:17.253Z,52.08
2022-09-15T07:21:45.776Z,51.89
2022-09-15T07:24:14.907Z,52.10
2022-09-15T07:26:43.802Z,51.96
2022-09-15T07:29:12.588Z,51.86
2022-09-15T07:31:41.258Z,51.88
2022-09-15T07:34:10.268Z,51.15
2022-09-15T07:36:38.952Z,51.00
2022-09-15T07:39:07.749Z,50.30
2022-09-15T07:41:36.739Z,49.65
2022-09-15T07:44:08.391Z,49.63
2022-09-15T07:46:37.082Z,49.48
2022-09-15T07:49:07.097Z,48.34
2022-09-15T07:51:35.886Z,48.52
2022-09-15T07:54:04.676Z,48.30
2022-09-15T07:56:33.679Z,47.80
2022-09-15T07:59:02.398Z,47.80
2022-09-15T08:01:31.234Z,47.55
2022-09-15T08:03:59.930Z,47.30
2022-09-15T08:06:29.028Z,46.66
2022-09-15T08:09:00.633Z,46.86
2022-09-15T08:11:30.296Z,46.62
2022-09-15T08:14:02.649Z,46.81
2022-09-15T08:16:32.240Z,46.62
2022-09-15T08:19:02.394Z,46.47
2022-09-15T08:21:31.143Z,45.75
2022-09-15T08:24:01.604Z,46.33
2022-09-15T08:26:31.184Z,46.33
2022-09-15T08:29:01.216Z,45.95
2022-09-15T08:31:30.219Z,45.38
2022-09-15T08:33:59.122Z,45.24
2022-09-15T08:36:28.423Z,44.89
2022-09-15T08:38:57.220Z,44.53
2022-09-15T08:41:44.742Z,44.12
2022-09-15T08:44:34.933Z,43.94
2022-09-15T08:47:19.902Z,43.21
2022-09-15T08:49:57.598Z,42.80
2022-09-15T08:52:33.569Z,43.43
2022-09-15T08:55:07.536Z,42.56
2022-09-15T08:57:36.561Z,42.77
2022-09-15T09:00:07.253Z,42.41
2022-09-15T09:02:41.471Z,42.62
2022-09-15T09:05:49.519Z,42.72
2022-09-15T09:08:52.002Z,42.01
2022-09-15T09:11:40.860Z,41.74
2022-09-15T09:14:43.651Z,41.27
2022-09-15T09:17:56.889Z,40.85
2022-09-15T09:20:39.902Z,41.36
2022-09-15T09:23:14.958Z,41.89
2022-09-15T09:25:45.024Z,41.51
2022-09-15T09:28:32.310Z,40.62
2022-09-15T09:31:08.221Z,40.86
2022-09-15T09:33:47.472Z,40.98
2022-09-15T09:36:22.296Z,40.77
2022-09-15T09:38:51.598Z,40.07
2022-09-15T09:41:25.607Z,39.79
2022-09-15T09:43:56.410Z,39.67
2022-09-15T09:46:25.079Z,39.94
2022-09-15T09:49:01.464Z,40.21
2022-09-15T09:51:35.320Z,39.54
2022-09-15T09:54:12.849Z,39.67
2022-09-15T09:56:42.305Z,39.96
2022-09-15T09:59:40.278Z,39.43
2022-09-15T10:02:12.044Z,39.34
2022-09-15T10:04:43.466Z,39.93
2022-09-15T10:07:14.796Z,40.08
2022-09-15T10:09:53.217Z,39.02
2022-09-15T10:12:42.088Z,39.92
2022-09-15T10:15:24.314Z,39.61
2022-09-15T10:17:54.638Z,38.16
2022-09-15T10:20:36.022Z,39.26
2022-09-15T10:23:25.805Z,39.31
2022-09-15T10:26:00.098Z,38.96
2022-09-15T10:28:29.829Z,39.05
2022-09-15T10:31:03.434Z,39.29
2022-09-15T10:33:37.920Z,39.01
2022-09-15T10:36:11.303Z,38.12
2022-09-15T10:38:49.230Z,38.38
2022-09-15T10:41:28.801Z,38.56
2022-09-15T10:44:23.189Z,37.99
2022-09-15T10:47:22.806Z,38.98
2022-09-15T10:50:21.899Z,38.52
2022-09-15T10:53:07.179Z,38.25
2022-09-15T10:55:51.558Z,38.04
2022-09-15T10:58:31.331Z,38.07
2022-09-15T11:01:28.319Z,37.13
2022-09-15T11:04:28.461Z,36.87
2022-09-15T11:07:00.118Z,36.24
2022-09-15T11:09:38.424Z,36.45
2022-09-15T11:12:32.605Z,36.61
2022-09-15T11:15:15.632Z,35.69
2022-09-15T11:17:53.323Z,36.16
2022-09-15T11:20:31.226Z,36.26
2022-09-15T11:23:02.985Z,35.90
2022-09-15T11:25:48.056Z,35.42
2022-09-15T11:28:39.072Z,34.23
2022-09-15T11:31:21.703Z,34.56
2022-09-15T11:33:56.303Z,34.79
2022-09-15T11:36:44.080Z,33.92
2022-09-15T11:39:30.193Z,33.80
2022-09-15T11:42:02.301Z,33.53
2022-09-15T11:44:36.726Z,33.10
2022-09-15T11:47:05.307Z,33.43
2022-09-15T11:49:55.810Z,33.17
2022-09-15T11:52:36.505Z,33.37
2022-09-15T11:55:23.452Z,34.12
2022-09-15T11:57:55.041Z,33.95
2022-09-15T12:00:23.832Z,33.85
2022-09-15T12:03:06.099Z,33.90
2022-09-15T12:05:45.706Z,33.98
2022-09-15T12:08:41.297Z,33.65
2022-09-15T12:11:19.317Z,33.41
2022-09-15T12:13:48.711Z,33.63
2022-09-15T12:16:19.059Z,33.68
2022-09-15T12:18:53.141Z,34.41
2022-09-15T12:21:54.596Z,33.45
2022-09-15T12:24:34.222Z,33.93
2022-09-15T12:27:03.235Z,33.30
2022-09-15T12:29:42.016Z,33.89
2022-09-15T12:32:25.490Z,34.59
2022-09-15T12:35:30.632Z,34.33
2022-09-15T12:38:01.163Z,34.13
2022-09-15T12:40:35.335Z,34.04
2022-09-15T12:43:19.118Z,33.45
2022-09-15T12:46:01.403Z,33.70
2022-09-15T12:48:36.734Z,33.87
2022-09-15T12:51:10.783Z,34.13
2022-09-15T12:54:04.867Z,34.23
2022-09-15T12:56:35.281Z,33.86
2022-09-15T12:59:14.934Z,33.57
2022-09-15T13:01:50.853Z,33.65
2022-09-15T13:04:43.977Z,34.05
2022-09-15T13:07:15.709Z,33.98
2022-09-15T13:10:13.894Z,34.20
2022-09-15T13:12:52.998Z,34.25
2022-09-15T13:15:25.735Z,34.25
2022-09-15T13:17:55.922Z,34.47
2022-09-15T13:20:31.059Z,34.38
2022-09-15T13:23:02.209Z,34.84
2022-09-15T13:25:31.632Z,35.06
2022-09-15T13:28:02.828Z,35.04
2022-09-15T13:30:40.799Z,34.93
2022-09-15T13:39:43.795Z,35.10
2022-09-15T13:42:28.767Z,35.33
2022-09-15T13:45:29.599Z,35.34
2022-09-15T13:48:15.289Z,35.46
2022-09-15T13:50:58.099Z,35.57
2022-09-15T13:53:43.156Z,35.20
2022-09-15T13:56:24.637Z,35.39
2022-09-15T13:59:00.999Z,35.68
2022-09-15T14:01:39.092Z,35.28
2022-09-15T14:04:13.857Z,35.68
2022-09-15T14:06:46.336Z,35.33
2022-09-15T14:09:27.530Z,35.37
2022-09-15T14:11:59.813Z,35.44
2022-09-15T14:14:28.468Z,35.28
2022-09-15T14:16:57.640Z,34.76
2022-09-15T14:19:37.633Z,34.77
2022-09-15T14:22:18.901Z,35.19
2022-09-15T14:24:48.460Z,35.11
2022-09-15T14:27:23.820Z,35.29
2022-09-15T14:29:58.025Z,35.29
2022-09-15T14:32:29.097Z,35.10
2022-09-15T14:35:01.494Z,34.83
2022-09-15T14:37:35.207Z,35.29
2022-09-15T14:40:19.710Z,35.65
2022-09-15T14:42:48.437Z,35.99
2022-09-15T14:48:16.496Z,36.91
2022-09-15T14:50:54.528Z,37.16
2022-09-15T14:53:25.982Z,37.36
2022-09-15T14:56:08.924Z,37.56
2022-09-15T14:58:57.660Z,37.69
2022-09-15T15:01:35.359Z,37.92
2022-09-15T15:04:41.731Z,38.21
2022-09-15T15:07:25.978Z,38.46
2022-09-15T15:10:04.710Z,38.80
2022-09-15T15:12:44.138Z,38.84
2022-09-15T15:15:15.506Z,39.20
2022-09-15T15:17:54.948Z,39.29
2022-09-15T15:20:27.585Z,39.48
2022-09-15T15:23:13.808Z,39.67
2022-09-15T15:25:43.312Z,39.72
2022-09-15T15:28:35.141Z,39.70
2022-09-15T15:31:13.765Z,39.82
2022-09-15T15:33:53.728Z,40.08
2022-09-15T15:36:24.509Z,40.05
2022-09-15T15:38:59.559Z,40.12
2022-09-15T15:41:31.235Z,40.40
2022-09-15T15:44:09.960Z,40.32
2022-09-15T15:46:54.424Z,40.53
2022-09-15T15:49:31.876Z,40.53
2022-09-15T15:52:02.107Z,40.72
2022-09-15T15:54:34.814Z,40.66
2022-09-15T15:57:28.348Z,40.68
2022-09-15T15:59:58.880Z,40.84
2022-09-15T16:02:28.009Z,40.87
2022-09-15T16:04:56.698Z,40.99
2022-09-15T16:07:31.074Z,41.08
2022-09-15T16:10:02.875Z,41.27
2022-09-15T16:12:34.709Z,41.53
2022-09-15T16:15:12.085Z,41.59
2022-09-15T16:17:45.891Z,41.65
2022-09-15T16:20:17.181Z,41.81
2022-09-15T16:22:46.072Z,41.77
2022-09-15T16:25:42.918Z,41.80
2022-09-15T16:28:11.762Z,42.10
2022-09-15T16:30:40.503Z,41.99
2022-09-15T16:33:14.390Z,41.98
2022-09-15T16:35:51.590Z,42.00
2022-09-15T16:38:21.885Z,42.15
2022-09-15T16:40:51.523Z,42.18
2022-09-15T16:43:22.062Z,42.40
2022-09-15T16:45:52.238Z,42.65
2022-09-15T16:48:21.479Z,42.90
2022-09-15T16:51:16.843Z,42.94
2022-09-15T16:53:40.558Z,42.86
2022-09-15T16:56:13.954Z,42.85
2022-09-15T16:58:44.280Z,43.03
2022-09-15T17:01:22.504Z,43.24
2022-09-15T17:03:51.181Z,43.30
2022-09-15T17:06:21.392Z,43.15
2022-09-15T17:08:50.087Z,43.25
2022-09-15T17:11:21.082Z,43.20
2022-09-15T17:13:49.918Z,43.26
2022-09-15T17:16:20.340Z,43.41
2022-09-15T17:18:49.336Z,43.63
2022-09-15T17:21:19.435Z,43.51
2022-09-15T17:23:50.399Z,43.55
2022-09-15T17:26:24.666Z,43.48
2022-09-15T17:28:56.676Z,43.50
2022-09-15T17:31:25.653Z,43.62
2022-09-15T17:33:54.669Z,43.62
2022-09-15T17:36:23.659Z,43.77
2022-09-15T17:38:52.448Z,43.73
2022-09-15T17:41:23.150Z,43.83
2022-09-15T17:43:53.336Z,44.00
2022-09-15T17:46:22.126Z,43.92
2022-09-15T17:48:51.094Z,44.16
2022-09-15T17:51:19.878Z,44.31
2022-09-15T17:53:48.459Z,44.43
2022-09-15T17:56:17.247Z,44.51
2022-09-15T17:58:46.344Z,44.36
2022-09-15T18:01:16.097Z,44.64
2022-09-15T18:03:45.462Z,44.81
2022-09-15T18:06:14.759Z,44.80
2022-09-15T18:08:43.616Z,44.75
2022-09-15T18:11:15.635Z,44.97
2022-09-15T18:13:44.275Z,45.01
2022-09-15T18:16:14.550Z,45.46
2022-09-15T18:18:43.511Z,45.24
2022-09-15T18:21:25.414Z,45.31
2022-09-15T18:23:54.105Z,45.48
2022-09-15T18:26:26.289Z,45.54
2022-09-15T18:28:56.394Z,46.04
2022-09-15T18:31:25.562Z,46.24
2022-09-15T18:33:54.767Z,46.20
2022-09-15T18:36:23.369Z,46.27
2022-09-15T18:38:52.079Z,46.41
2022-09-15T18:41:21.256Z,47.00
2022-09-15T18:43:49.885Z,46.83
2022-09-15T18:46:18.809Z,46.91
2022-09-15T18:48:48.339Z,46.82
2022-09-15T18:51:24.143Z,47.05
2022-09-15T18:53:58.005Z,47.17
2022-09-15T18:56:27.099Z,47.54
2022-09-15T18:58:56.501Z,47.75
2022-09-15T19:01:25.604Z,47.85
2022-09-15T19:03:54.656Z,47.69
2022-09-15T19:06:23.379Z,47.72
2022-09-15T19:08:52.452Z,47.73
2022-09-15T19:11:21.465Z,47.51
2022-09-15T19:13:53.463Z,47.75
2022-09-15T19:16:22.977Z,47.82
2022-09-15T19:18:57.086Z,48.24
2022-09-15T19:21:27.454Z,48.35
2022-09-15T19:23:58.291Z,49.56
2022-09-15T19:26:29.763Z,49.34
2022-09-15T19:28:58.861Z,48.80
2022-09-15T19:31:27.912Z,48.96
2022-09-15T19:33:57.667Z,49.01
2022-09-15T19:36:28.730Z,49.10
2022-09-15T19:39:00.545Z,49.16
2022-09-15T19:41:31.517Z,49.12
2022-09-15T19:44:02.847Z,49.24
2022-09-15T19:46:31.963Z,49.24
2022-09-15T19:49:03.286Z,49.24
2022-09-15T19:51:31.890Z,49.68
2022-09-15T19:54:01.088Z,49.46
2022-09-15T19:56:31.389Z,49.53
2022-09-15T19:59:00.308Z,49.31
2022-09-15T20:01:31.285Z,49.93
2022-09-15T20:04:02.195Z,50.71
2022-09-15T20:06:32.766Z,51.16
2022-09-15T20:09:02.511Z,50.74
2022-09-15T20:11:31.945Z,50.68
2022-09-15T20:14:01.851Z,50.77
2022-09-15T20:16:30.845Z,51.14
2022-09-15T20:18:59.631Z,51.24
2022-09-15T20:21:49.253Z,51.43
2022-09-15T20:24:20.047Z,51.60
2022-09-15T20:26:48.931Z,51.54
2022-09-15T20:29:18.450Z,51.43
2022-09-15T20:31:47.965Z,51.53
2022-09-15T20:34:19.070Z,51.44
2022-09-15T20:36:47.675Z,51.24
2022-09-15T20:39:19.229Z,51.01
2022-09-15T20:41:47.972Z,51.38
2022-09-15T20:44:17.115Z,51.64
2022-09-15T20:46:45.603Z,51.37
2022-09-15T20:49:16.228Z,51.36
2022-09-15T20:51:45.630Z,51.31
2022-09-15T20:54:15.032Z,51.39
2022-09-15T20:56:43.722Z,51.36
2022-09-15T20:59:14.665Z,51.59
2022-09-15T21:01:43.981Z,51.63
2022-09-15T21:04:12.856Z,51.74
2022-09-15T21:06:41.640Z,51.69
2022-09-15T21:09:10.432Z,51.64
2022-09-15T21:11:40.042Z,51.60
2022-09-15T21:14:10.985Z,51.49
2022-09-15T21:16:39.825Z,51.42
2022-09-15T21:19:12.919Z,51.17
2022-09-15T21:21:41.540Z,51.15
2022-09-15T21:24:10.129Z,50.96
2022-09-15T21:27:01.872Z,50.69
2022-09-15T21:29:31.670Z,50.77
2022-09-15T21:32:00.418Z,50.74
2022-09-15T21:34:29.398Z,50.66
2022-09-15T21:36:58.340Z,50.53
2022-09-15T21:39:27.036Z,50.54
2022-09-15T21:41:55.813Z,50.53
2022-09-15T21:44:24.399Z,50.65
2022-09-15T21:46:53.393Z,50.59
2022-09-15T21:49:22.284Z,50.49
2022-09-15T21:51:51.285Z,50.35
2022-09-15T21:54:19.966Z,50.49
2022-09-15T21:56:48.648Z,50.43
2022-09-15T21:59:18.624Z,50.50
2022-09-15T22:01:47.484Z,50.45
2022-09-15T22:04:16.253Z,50.62
2022-09-15T22:06:47.286Z,50.59
2022-09-15T22:09:18.821Z,50.57
2022-09-15T22:11:48.345Z,50.55
2022-09-15T22:14:18.570Z,50.67
2022-09-15T22:16:47.521Z,50.41
2022-09-15T22:19:16.662Z,50.39
2022-09-15T22:21:45.839Z,50.59
2022-09-15T22:24:15.157Z,50.64
2022-09-15T22:26:44.282Z,50.86
2022-09-15T22:29:12.942Z,50.84
2022-09-15T22:31:42.374Z,50.67
2022-09-15T22:34:11.239Z,50.73
2022-09-15T22:36:40.029Z,51.05
2022-09-15T22:39:09.048Z,51.40
2022-09-15T22:41:39.538Z,51.56
2022-09-15T22:44:18.380Z,51.48
2022-09-15T22:46:47.367Z,51.40
2022-09-15T22:49:16.177Z,51.32
2022-09-15T22:51:46.483Z,51.34
2022-09-15T22:54:15.473Z,51.50
2022-09-15T22:56:43.961Z,51.80
2022-09-15T22:59:14.076Z,51.89
2022-09-15T23:01:43.093Z,52.21
2022-09-15T23:04:11.657Z,52.41
2022-09-15T23:06:40.442Z,52.24
2022-09-15T23:09:10.819Z,52.36
2022-09-15T23:11:40.684Z,52.29
2022-09-15T23:14:18.249Z,52.49
2022-09-15T23:16:47.076Z,52.84
2022-09-15T23:19:16.187Z,53.05
2022-09-15T23:21:45.778Z,52.79
2022-09-15T23:24:15.431Z,52.74
2022-09-15T23:26:44.073Z,52.83
2022-09-15T23:29:12.763Z,53.03
2022-09-15T23:31:41.870Z,53.46
2022-09-15T23:34:10.639Z,53.94
2022-09-15T23:36:39.227Z,53.85
2022-09-15T23:39:07.840Z,54.05
2022-09-15T23:41:37.057Z,53.92
2022-09-15T23:44:06.002Z,53.81
2022-09-15T23:46:35.019Z,53.88
2022-09-15T23:49:03.680Z,53.35
2022-09-15T23:51:32.264Z,53.86
2022-09-15T23:54:02.493Z,53.72
2022-09-15T23:56:32.404Z,54.01
2022-09-15T23:59:01.296Z,53.63
